Time;durP1;ratioP1;P1;durP2;ratioP2;P2;SDS_P1;SDS_P2;PMS_P1;PMS_P2;Temp;Humidity;BMP_temperature;BMP_pressure;BME280_temperature;BME280_humidity;BME280_pressure;Samples;Min_cycle;Max_cycle;Signal;HPM_P1;HPM_P2
2021/04/18 00:02:18;;;;;;;1999.90;999.90;;;6.00;99.90;;;;;;5092301;28;20052;-92
2021/04/18 00:04:45;;;;;;;1999.90;999.90;;;6.00;99.90;;;;;;5092392;28;20048;-92
2021/04/18 00:07:13;;;;;;;1999.90;999.90;;;6.00;99.90;;;;;;5094068;28;20044;-93
2021/04/18 00:09:40;;;;;;;1999.90;999.90;;;5.90;99.90;;;;;;5090313;28;20070;-93
2021/04/18 00:12:08;;;;;;;1999.90;999.90;;;5.90;99.90;;;;;;5088285;28;20044;-92
2021/04/18 00:14:36;;;;;;;1999.90;999.90;;;5.90;99.90;;;;;;5094962;28;20048;-92
2021/04/18 00:17:03;;;;;;;1999.90;999.90;;;5.80;99.90;;;;;;5093571;28;20048;-92
2021/04/18 00:19:34;;;;;;;1999.90;999.90;;;5.80;99.90;;;;;;5093569;28;20453;-92
2021/04/18 00:22:02;;;;;;;1999.90;999.90;;;5.80;99.90;;;;;;5082693;28;20056;-93
2021/04/18 00:24:45;;;;;;;1999.90;999.90;;;5.80;99.90;;;;;;5096192;28;20059;-93
2021/04/18 00:27:14;;;;;;;1999.90;999.90;;;5.80;99.90;;;;;;5094891;28;20419;-93
2021/04/18 00:29:41;;;;;;;1999.90;999.90;;;5.70;99.90;;;;;;5094699;28;20475;-92
2021/04/18 00:32:08;;;;;;;1999.90;999.90;;;5.70;99.90;;;;;;5097877;28;20048;-93
2021/04/18 00:34:37;;;;;;;1999.90;999.90;;;5.70;99.90;;;;;;5097661;28;20078;-93
2021/04/18 00:37:05;;;;;;;1999.90;999.90;;;5.60;99.90;;;;;;5096587;28;20453;-93
2021/04/18 00:39:32;;;;;;;1999.90;999.90;;;5.60;99.90;;;;;;5085639;28;20036;-92
2021/04/18 00:41:59;;;;;;;1999.90;999.90;;;5.60;99.90;;;;;;5095290;28;20052;-92
2021/04/18 00:44:26;;;;;;;1999.90;999.90;;;5.60;99.90;;;;;;5088248;28;20106;-92
2021/04/18 00:46:53;;;;;;;1999.90;999.90;;;5.60;99.90;;;;;;5094143;28;20087;-92
2021/04/18 00:49:20;;;;;;;1999.90;999.90;;;5.50;99.90;;;;;;5101136;28;20418;-93
2021/04/18 00:51:48;;;;;;;1999.90;999.90;;;5.50;99.90;;;;;;5100453;28;20048;-92
2021/04/18 00:54:15;;;;;;;1999.90;999.90;;;5.50;99.90;;;;;;5101675;28;20052;-93
2021/04/18 00:56:43;;;;;;;1999.90;999.90;;;5.50;99.90;;;;;;5110230;28;20086;-93
2021/04/18 00:59:10;;;;;;;1999.90;999.90;;;5.50;99.90;;;;;;5091314;28;20079;-92
2021/04/18 01:01:37;;;;;;;1999.90;999.90;;;5.40;99.90;;;;;;5098003;28;20058;-92
2021/04/18 01:04:05;;;;;;;1999.90;999.90;;;5.40;99.90;;;;;;5094540;28;20051;-92
2021/04/18 01:06:32;;;;;;;1999.90;999.90;;;5.40;99.90;;;;;;5076834;28;20116;-92
2021/04/18 01:09:01;;;;;;;1999.90;999.90;;;5.30;99.90;;;;;;5092761;28;20093;-92
2021/04/18 01:11:28;;;;;;;1999.90;999.90;;;5.30;99.90;;;;;;5096727;28;20589;-93
2021/04/18 01:13:55;;;;;;;1999.90;999.90;;;5.30;99.90;;;;;;5083229;28;20504;-92
2021/04/18 01:16:22;;;;;;;1999.90;999.90;;;5.30;99.90;;;;;;5094857;28;20367;-93
2021/04/18 01:18:49;;;;;;;1999.90;999.90;;;5.20;99.90;;;;;;5097078;28;20075;-92
2021/04/18 01:21:17;;;;;;;1999.90;999.90;;;5.20;99.90;;;;;;5089603;28;20562;-92
2021/04/18 01:23:44;;;;;;;1999.90;999.90;;;5.20;99.90;;;;;;5096661;28;20044;-92
2021/04/18 01:26:13;;;;;;;1999.90;999.90;;;5.10;99.90;;;;;;5093617;28;20052;-93
2021/04/18 01:28:43;;;;;;;1999.90;999.90;;;5.10;99.90;;;;;;5086191;28;20040;-92
2021/04/18 01:31:13;;;;;;;1999.90;999.90;;;5.10;99.90;;;;;;5096561;28;20067;-92
2021/04/18 01:33:41;;;;;;;1999.90;999.90;;;5.10;99.90;;;;;;5089179;28;20056;-93
2021/04/18 01:36:11;;;;;;;1999.90;999.90;;;5.10;99.90;;;;;;5084646;28;20453;-92
2021/04/18 01:38:40;;;;;;;1999.90;999.90;;;5.10;99.90;;;;;;5080838;28;20070;-92
2021/04/18 01:41:09;;;;;;;1999.90;999.90;;;5.00;99.90;;;;;;5085055;28;20496;-93
2021/04/18 01:43:39;;;;;;;1999.90;999.90;;;5.00;99.90;;;;;;5090919;28;20075;-92
2021/04/18 01:46:08;;;;;;;1999.90;999.90;;;5.00;99.90;;;;;;5089247;28;20048;-92
2021/04/18 01:48:36;;;;;;;1999.90;999.90;;;5.00;99.90;;;;;;5095771;28;20044;-92
2021/04/18 01:51:05;;;;;;;1999.90;999.90;;;4.90;99.90;;;;;;5096125;28;20055;-92
2021/04/18 01:53:32;;;;;;;1999.90;999.90;;;4.90;99.90;;;;;;5094814;28;20047;-92
2021/04/18 01:56:03;;;;;;;1999.90;999.90;;;4.90;99.90;;;;;;5096305;28;20055;-92
2021/04/18 01:58:30;;;;;;;1999.90;999.90;;;4.90;99.90;;;;;;5094184;28;20467;-92
2021/04/18 02:00:57;;;;;;;1999.90;999.90;;;4.90;99.90;;;;;;5095999;28;20528;-92
2021/04/18 02:03:24;;;;;;;1999.90;999.90;;;4.80;99.90;;;;;;5082136;28;20107;-92
2021/04/18 02:05:52;;;;;;;1999.90;999.90;;;4.80;99.90;;;;;;5096057;28;20052;-92
2021/04/18 02:08:19;;;;;;;1999.90;999.90;;;4.80;99.90;;;;;;5093254;28;20048;-92
2021/04/18 02:10:46;;;;;;;1999.90;999.90;;;4.80;99.90;;;;;;5090791;28;20051;-92
2021/04/18 02:13:14;;;;;;;1999.90;999.90;;;4.80;99.90;;;;;;5087257;28;20052;-92
2021/04/18 02:15:41;;;;;;;1999.90;999.90;;;4.70;99.90;;;;;;5094531;28;20052;-92
2021/04/18 02:18:08;;;;;;;1999.90;999.90;;;4.70;99.90;;;;;;5085268;28;20552;-92
2021/04/18 02:20:36;;;;;;;1999.90;999.90;;;4.70;99.90;;;;;;5082734;28;20484;-92
2021/04/18 02:23:03;;;;;;;1999.90;999.90;;;4.70;99.90;;;;;;5095773;28;20085;-92
2021/04/18 02:25:31;;;;;;;1999.90;999.90;;;4.70;99.90;;;;;;5095695;28;20060;-91
2021/04/18 02:27:58;;;;;;;1999.90;999.90;;;4.60;99.90;;;;;;5091526;28;20131;-92
2021/04/18 02:30:26;;;;;;;1999.90;999.90;;;4.60;99.90;;;;;;5087810;28;20127;-92
2021/04/18 02:32:53;;;;;;;1999.90;999.90;;;4.60;99.90;;;;;;5081064;28;20467;-92
2021/04/18 02:35:21;;;;;;;1999.90;999.90;;;4.60;99.90;;;;;;5086711;28;20060;-92
2021/04/18 02:37:50;;;;;;;1999.90;999.90;;;4.60;99.90;;;;;;5095197;28;20089;-92
2021/04/18 02:40:18;;;;;;;1999.90;999.90;;;4.60;99.90;;;;;;5085570;28;20071;-92
2021/04/18 02:42:45;;;;;;;1999.90;999.90;;;4.60;99.90;;;;;;5096790;28;20552;-92
2021/04/18 02:45:13;;;;;;;1999.90;999.90;;;4.60;99.90;;;;;;5096874;28;20552;-92
2021/04/18 02:47:41;;;;;;;1999.90;999.90;;;4.60;99.90;;;;;;5098857;28;20060;-92
2021/04/18 02:50:13;;;;;;;1999.90;999.90;;;4.50;99.90;;;;;;5098985;28;20048;-92
2021/04/18 02:52:45;;;;;;;1999.90;999.90;;;4.50;99.90;;;;;;5084911;28;20056;-92
2021/04/18 02:55:13;;;;;;;1999.90;999.90;;;4.50;99.90;;;;;;5084572;28;20097;-92
2021/04/18 02:57:40;;;;;;;1999.90;999.90;;;4.40;99.90;;;;;;5095519;28;20056;-92
2021/04/18 03:00:09;;;;;;;1999.90;999.90;;;4.50;99.90;;;;;;5082798;28;20048;-92
2021/04/18 03:02:36;;;;;;;1999.90;999.90;;;4.40;99.90;;;;;;5086031;28;20044;-93
2021/04/18 03:05:06;;;;;;;1999.90;999.90;;;4.40;99.90;;;;;;5080456;28;20386;-92
2021/04/18 03:07:33;;;;;;;1999.90;999.90;;;4.40;99.90;;;;;;5080192;28;20044;-92
2021/04/18 03:10:00;;;;;;;1999.90;999.90;;;4.40;99.90;;;;;;5095033;28;20101;-92
2021/04/18 03:12:27;;;;;;;1999.90;999.90;;;4.40;99.90;;;;;;5097651;28;20108;-92
2021/04/18 03:14:54;;;;;;;1999.90;999.90;;;4.40;99.90;;;;;;5103827;28;20048;-92
2021/04/18 03:17:21;;;;;;;1999.90;999.90;;;4.30;99.90;;;;;;5091102;28;20139;-92
2021/04/18 03:19:49;;;;;;;1999.90;999.90;;;4.30;99.90;;;;;;5084289;28;20078;-92
2021/04/18 03:22:16;;;;;;;1999.90;999.90;;;4.30;99.90;;;;;;5094283;28;20498;-92
2021/04/18 03:24:43;;;;;;;1999.90;999.90;;;4.30;99.90;;;;;;5094140;28;20048;-92
2021/04/18 03:27:10;;;;;;;1999.90;999.90;;;4.30;99.90;;;;;;5094528;28;20168;-92
2021/04/18 03:29:37;;;;;;;1999.90;999.90;;;4.20;99.90;;;;;;5073993;28;20051;-92
2021/04/18 03:32:05;;;;;;;1999.90;999.90;;;4.20;99.90;;;;;;5088200;28;20044;-92
2021/04/18 03:34:33;;;;;;;1999.90;999.90;;;4.20;99.90;;;;;;5090097;28;20040;-92
2021/04/18 03:37:00;;;;;;;1999.90;999.90;;;4.20;99.90;;;;;;5087691;28;20063;-92
2021/04/18 03:39:28;;;;;;;1999.90;999.90;;;4.20;99.90;;;;;;5090919;28;20444;-92
2021/04/18 03:41:55;;;;;;;1999.90;999.90;;;4.20;99.90;;;;;;5094237;28;20071;-92
2021/04/18 03:44:22;;;;;;;1999.90;999.90;;;4.10;99.90;;;;;;5082817;28;20659;-92
2021/04/18 03:46:49;;;;;;;1999.90;999.90;;;4.10;99.90;;;;;;5088197;28;20068;-92
2021/04/18 03:49:16;;;;;;;1999.90;999.90;;;4.10;99.90;;;;;;5073843;28;20045;-92
2021/04/18 03:51:47;;;;;;;1999.90;999.90;;;4.10;99.90;;;;;;5090757;28;20044;-92
2021/04/18 03:54:14;;;;;;;1999.90;999.90;;;4.00;99.90;;;;;;5085612;28;20044;-91
2021/04/18 03:56:42;;;;;;;1999.90;999.90;;;4.00;99.90;;;;;;5086923;28;20097;-92
2021/04/18 03:59:09;;;;;;;1999.90;999.90;;;4.00;99.90;;;;;;5094232;28;20074;-92
2021/04/18 04:01:39;;;;;;;1999.90;999.90;;;4.00;99.90;;;;;;5087763;28;20102;-92
2021/04/18 04:04:07;;;;;;;1999.90;999.90;;;4.00;99.90;;;;;;5091825;28;20048;-92
2021/04/18 04:06:35;;;;;;;1999.90;999.90;;;4.00;99.90;;;;;;5110077;28;20076;-91
2021/04/18 04:09:03;;;;;;;1999.90;999.90;;;4.00;99.90;;;;;;5097874;28;20135;-92
2021/04/18 04:11:30;;;;;;;1999.90;999.90;;;3.90;99.90;;;;;;5088548;28;20117;-92
2021/04/18 04:13:58;;;;;;;1999.90;999.90;;;3.90;99.90;;;;;;5090969;28;20072;-92
2021/04/18 04:16:25;;;;;;;1999.90;999.90;;;3.90;99.90;;;;;;5081256;28;20433;-92
2021/04/18 04:18:52;;;;;;;1999.90;999.90;;;4.00;99.90;;;;;;5088505;28;20487;-92
2021/04/18 04:21:19;;;;;;;1999.90;999.90;;;3.90;99.90;;;;;;5090945;28;20198;-92
2021/04/18 04:23:46;;;;;;;1999.90;999.90;;;3.90;99.90;;;;;;5076681;28;20048;-92
2021/04/18 04:26:14;;;;;;;1999.90;999.90;;;3.90;99.90;;;;;;5086682;28;20139;-92
2021/04/18 04:28:41;;;;;;;1999.90;999.90;;;3.90;99.90;;;;;;5093889;28;20407;-93
2021/04/18 04:31:09;;;;;;;1999.90;999.90;;;3.90;99.90;;;;;;5093641;28;20067;-92
2021/04/18 04:33:37;;;;;;;1999.90;999.90;;;3.90;99.90;;;;;;5094443;28;20064;-92
2021/04/18 04:36:06;;;;;;;1999.90;999.90;;;3.90;99.90;;;;;;5090345;28;20538;-92
2021/04/18 04:38:34;;;;;;;1999.90;999.90;;;3.90;99.90;;;;;;5082403;28;20067;-92
2021/04/18 04:41:01;;;;;;;1999.90;999.90;;;3.90;99.90;;;;;;5093689;28;20494;-93
2021/04/18 04:43:28;;;;;;;1999.90;999.90;;;3.90;99.90;;;;;;5093174;28;20044;-92
2021/04/18 04:45:55;;;;;;;1999.90;999.90;;;3.80;99.90;;;;;;5093005;28;20582;-92
2021/04/18 04:48:23;;;;;;;1999.90;999.90;;;3.90;99.90;;;;;;5079137;28;20045;-92
2021/04/18 04:50:51;;;;;;;1999.90;999.90;;;3.90;99.90;;;;;;5092762;28;20479;-92
2021/04/18 04:53:18;;;;;;;1999.90;999.90;;;3.80;99.90;;;;;;5093092;28;20055;-92
2021/04/18 04:55:47;;;;;;;1999.90;999.90;;;3.90;99.90;;;;;;5093097;28;20139;-92
2021/04/18 04:58:14;;;;;;;1999.90;999.90;;;3.90;99.90;;;;;;5093051;28;20105;-92
2021/04/18 05:00:41;;;;;;;1999.90;999.90;;;3.90;99.90;;;;;;5093143;28;20048;-92
2021/04/18 05:03:08;;;;;;;1999.90;999.90;;;3.90;99.90;;;;;;5081188;28;20056;-92
2021/04/18 05:05:37;;;;;;;1999.90;999.90;;;4.00;99.90;;;;;;5091420;28;20071;-92
2021/04/18 05:08:05;;;;;;;1999.90;999.90;;;4.00;99.90;;;;;;5093199;28;20117;-92
2021/04/18 05:10:32;;;;;;;1999.90;999.90;;;4.00;99.90;;;;;;5093276;28;22154;-92
2021/04/18 05:12:59;;;;;;;1999.90;999.90;;;4.10;99.90;;;;;;5084139;28;20094;-93
2021/04/18 05:15:26;;;;;;;1999.90;999.90;;;4.10;99.90;;;;;;5087489;28;20083;-92
2021/04/18 05:17:53;;;;;;;1999.90;999.90;;;4.10;99.90;;;;;;5084517;28;20044;-92
2021/04/18 05:20:20;;;;;;;1999.90;999.90;;;4.20;99.90;;;;;;5101236;28;20411;-92
2021/04/18 05:22:48;;;;;;;1999.90;999.90;;;4.20;99.90;;;;;;5108893;28;20099;-92
2021/04/18 05:25:16;;;;;;;1999.90;999.90;;;4.20;99.90;;;;;;5110699;28;20106;-93
2021/04/18 05:27:43;;;;;;;1999.90;999.90;;;4.20;99.90;;;;;;5110323;28;20051;-92
2021/04/18 05:30:11;;;;;;;1999.90;999.90;;;4.30;99.90;;;;;;5096544;28;20048;-91
2021/04/18 05:32:39;;;;;;;1999.90;999.90;;;4.30;99.90;;;;;;5091213;28;20134;-92
2021/04/18 05:35:09;;;;;;;1999.90;999.90;;;4.30;99.90;;;;;;5089360;28;20101;-92
2021/04/18 05:37:37;;;;;;;1999.90;999.90;;;4.30;99.90;;;;;;5079915;28;20052;-92
2021/04/18 05:40:07;;;;;;;1999.90;999.90;;;4.30;99.90;;;;;;5093229;28;20044;-93
2021/04/18 05:42:34;;;;;;;1999.90;999.90;;;4.40;99.90;;;;;;5094794;28;20542;-92
2021/04/18 05:45:01;;;;;;;1999.90;999.90;;;4.40;99.90;;;;;;5097007;28;20059;-93
2021/04/18 05:47:28;;;;;;;1999.90;999.90;;;4.40;99.90;;;;;;5097233;28;20063;-92
2021/04/18 05:49:56;;;;;;;1999.90;999.90;;;4.40;99.90;;;;;;5097460;28;20045;-93
2021/04/18 05:52:23;;;;;;;1999.90;999.90;;;4.50;99.90;;;;;;5105962;28;20742;-93
2021/04/18 05:54:51;;;;;;;1999.90;999.90;;;4.50;99.90;;;;;;5090335;28;20048;-93
2021/04/18 05:57:20;;;;;;;1999.90;999.90;;;4.50;99.90;;;;;;5097136;28;20430;-93
2021/04/18 05:59:47;;;;;;;1999.90;999.90;;;4.60;99.90;;;;;;5086997;28;20110;-93
2021/04/18 06:02:15;;;;;;;1999.90;999.90;;;4.60;99.90;;;;;;5083319;28;20127;-92
2021/04/18 06:04:42;;;;;;;1999.90;999.90;;;4.70;99.90;;;;;;5097995;28;20474;-93
2021/04/18 06:07:10;;;;;;;1999.90;999.90;;;4.70;99.90;;;;;;5097831;28;20051;-93
2021/04/18 06:09:37;;;;;;;1999.90;999.90;;;4.90;99.90;;;;;;5096906;28;20040;-93
2021/04/18 06:12:05;;;;;;;1999.90;999.90;;;4.90;99.90;;;;;;5097401;28;20048;-93
2021/04/18 06:14:36;;;;;;;1999.90;999.90;;;5.00;99.90;;;;;;5085460;28;20052;-93
2021/04/18 06:17:03;;;;;;;1999.90;999.90;;;5.10;99.90;;;;;;5086580;28;20060;-93
2021/04/18 06:19:38;;;;;;;1999.90;999.90;;;5.20;99.90;;;;;;5092009;28;20036;-93
2021/04/18 06:22:06;;;;;;;1999.90;999.90;;;5.20;99.90;;;;;;5094605;28;20491;-93
2021/04/18 06:24:38;;;;;;;1999.90;999.90;;;5.30;99.90;;;;;;5095118;28;20491;-93
2021/04/18 06:27:07;;;;;;;1999.90;999.90;;;5.40;99.90;;;;;;5096531;28;20055;-92
2021/04/18 06:29:38;;;;;;;1999.90;999.90;;;5.50;99.90;;;;;;5089799;28;20044;-93
2021/04/18 06:32:11;;;;;;;1999.90;999.90;;;5.60;99.90;;;;;;5083361;28;20066;-94
2021/04/18 06:34:47;;;;;;;1999.90;999.90;;;5.70;99.90;;;;;;5077178;28;20044;-93
2021/04/18 06:37:14;;;;;;;1999.90;999.90;;;5.80;99.90;;;;;;5096514;28;20052;-95
2021/04/18 06:39:41;;;;;;;1999.90;999.90;;;5.90;99.90;;;;;;5097270;28;20052;-95
2021/04/18 06:42:14;;;;;;;1999.90;999.90;;;6.10;99.90;;;;;;5096959;28;20062;-95
2021/04/18 06:44:43;;;;;;;1999.90;999.90;;;6.10;99.90;;;;;;5096725;28;20102;-95
2021/04/18 06:47:10;;;;;;;1999.90;999.90;;;6.30;99.90;;;;;;5098902;28;20416;-95
2021/04/18 06:49:39;;;;;;;1999.90;999.90;;;6.40;99.90;;;;;;5098917;28;20456;-95
2021/04/18 06:52:11;;;;;;;1999.90;999.90;;;6.50;99.90;;;;;;5098881;28;20482;-95
2021/04/18 06:54:39;;;;;;;1999.90;999.90;;;6.60;99.90;;;;;;5099008;28;20055;-94
2021/04/18 06:57:08;;;;;;;1999.90;999.90;;;6.70;99.90;;;;;;5097420;28;20406;-95
2021/04/18 06:59:38;;;;;;;1999.90;999.90;;;6.70;99.90;;;;;;5097202;28;20130;-95
2021/04/18 07:02:23;;;;;;;1999.90;999.90;;;6.80;99.90;;;;;;5097193;28;20052;-95
2021/04/18 07:04:57;;;;;;;1999.90;999.90;;;6.90;99.90;;;;;;5097504;28;20078;-95
2021/04/18 07:07:30;;;;;;;1999.90;999.90;;;6.90;99.90;;;;;;5097059;28;20101;-95
2021/04/18 07:09:58;;;;;;;1999.90;999.90;;;7.00;99.90;;;;;;5096696;28;20040;-95
2021/04/18 07:12:27;;;;;;;1999.90;999.90;;;7.00;99.90;;;;;;5097210;28;20056;-95
2021/04/18 07:14:54;;;;;;;1999.90;999.90;;;7.00;99.90;;;;;;5096328;28;20055;-95
2021/04/18 07:17:26;;;;;;;1999.90;999.90;;;7.10;99.90;;;;;;5096671;28;20064;-95
2021/04/18 07:20:08;;;;;;;1999.90;999.90;;;7.20;99.90;;;;;;5096451;28;20059;-95
2021/04/18 07:22:41;;;;;;;1999.90;999.90;;;7.30;99.90;;;;;;5096475;28;20087;-95
2021/04/18 07:25:10;;;;;;;1999.90;999.90;;;7.40;99.90;;;;;;5096867;28;20124;-95
2021/04/18 07:27:48;;;;;;;1999.90;999.90;;;7.40;99.90;;;;;;5096347;28;20052;-95
2021/04/18 07:30:17;;;;;;;1999.90;999.90;;;7.50;99.90;;;;;;5095873;28;20494;-95
2021/04/18 07:33:03;;;;;;;1999.90;999.90;;;7.50;99.90;;;;;;5095344;28;20471;-94
2021/04/18 07:35:38;;;;;;;1999.90;999.90;;;7.50;99.90;;;;;;5095498;28;20131;-95
2021/04/18 07:38:29;;;;;;;1999.90;999.90;;;7.60;99.90;;;;;;5095700;28;20052;-95
2021/04/18 07:40:58;;;;;;;1999.90;999.90;;;7.60;99.90;;;;;;5090668;28;20048;-94
2021/04/18 07:43:25;;;;;;;1999.90;999.90;;;7.60;99.90;;;;;;5108438;28;20048;-94
2021/04/18 07:45:53;;;;;;;1999.90;999.90;;;7.70;99.90;;;;;;5103118;28;20060;-95
2021/04/18 07:48:24;;;;;;;1999.90;999.90;;;7.80;99.90;;;;;;5096752;28;20059;-95
2021/04/18 07:50:52;;;;;;;1999.90;999.90;;;7.80;99.90;;;;;;5095343;28;20058;-95
2021/04/18 07:53:27;;;;;;;1999.90;999.90;;;7.90;99.90;;;;;;5095585;28;20053;-95
2021/04/18 07:55:55;;;;;;;1999.90;999.90;;;8.00;99.90;;;;;;5095523;28;20048;-95
2021/04/18 07:58:26;;;;;;;1999.90;999.90;;;8.00;99.90;;;;;;5095945;28;20055;-95
2021/04/18 08:00:55;;;;;;;1999.90;999.90;;;8.10;99.90;;;;;;5096048;28;20055;-94
2021/04/18 08:03:29;;;;;;;1999.90;999.90;;;8.10;99.90;;;;;;5095875;28;20068;-96
2021/04/18 08:06:00;;;;;;;1999.90;999.90;;;8.20;99.90;;;;;;5095526;28;20451;-95
2021/04/18 08:08:46;;;;;;;1999.90;999.90;;;8.30;99.90;;;;;;5095494;28;20055;-95
2021/04/18 08:11:17;;;;;;;1999.90;999.90;;;8.40;99.90;;;;;;5095819;28;20041;-95
2021/04/18 08:13:48;;;;;;;1999.90;999.90;;;8.50;99.90;;;;;;5097678;28;20399;-95
2021/04/18 08:16:29;;;;;;;1999.90;999.90;;;8.50;99.90;;;;;;5100033;28;20039;-95
2021/04/18 08:19:10;;;;;;;1999.90;999.90;;;8.60;99.90;;;;;;5099022;28;20520;-95
2021/04/18 08:21:43;;;;;;;1999.90;999.90;;;8.60;99.90;;;;;;5095769;28;20063;-95
2021/04/18 08:24:31;;;;;;;1999.90;999.90;;;8.70;99.90;;;;;;5097280;28;20052;-96
2021/04/18 08:27:05;;;;;;;1999.90;999.90;;;8.70;99.90;;;;;;5096773;28;20097;-96
2021/04/18 08:29:57;;;;;;;1999.90;999.90;;;8.70;99.90;;;;;;5096628;28;20044;-95
2021/04/18 08:32:43;;;;;;;1999.90;999.90;;;8.80;99.90;;;;;;5097346;28;20052;-96
2021/04/18 08:35:17;;;;;;;1999.90;999.90;;;8.90;99.90;;;;;;5095807;28;20113;-96
2021/04/18 08:37:48;;;;;;;1999.90;999.90;;;8.90;99.90;;;;;;5095834;28;20074;-96
2021/04/18 08:40:15;;;;;;;1999.90;999.90;;;9.00;99.90;;;;;;5095797;28;20438;-96
2021/04/18 08:42:52;;;;;;;1999.90;999.90;;;9.10;99.90;;;;;;5096225;28;20055;-95
2021/04/18 08:45:48;;;;;;;1999.90;999.90;;;9.20;99.90;;;;;;5095482;28;20079;-95
2021/04/18 08:48:17;;;;;;;1999.90;999.90;;;9.20;99.90;;;;;;5095624;28;20067;-95
2021/04/18 08:51:02;;;;;;;1999.90;999.90;;;9.30;99.90;;;;;;5097215;28;20101;-96
2021/04/18 08:53:54;;;;;;;1999.90;999.90;;;9.40;99.90;;;;;;5099715;28;20052;-96
2021/04/18 08:56:22;;;;;;;1999.90;999.90;;;9.40;99.90;;;;;;5102485;28;20048;-96
2021/04/18 08:58:55;;;;;;;1999.90;999.90;;;9.40;99.90;;;;;;5099950;28;20117;-96
2021/04/18 09:01:27;;;;;;;1999.90;999.90;;;9.50;99.90;;;;;;5099305;28;20125;-95
2021/04/18 09:04:03;;;;;;;1999.90;999.90;;;9.70;99.90;;;;;;5099249;28;20048;-96
2021/04/18 09:06:39;;;;;;;1999.90;999.90;;;9.70;99.90;;;;;;5101084;28;20384;-96
2021/04/18 09:09:14;;;;;;;1999.90;999.90;;;9.80;99.90;;;;;;5101170;28;20044;-96
2021/04/18 09:11:46;;;;;;;1999.90;999.90;;;9.80;99.90;;;;;;5102485;28;20055;-96
2021/04/18 09:14:17;;;;;;;1999.90;999.90;;;9.80;99.90;;;;;;5102516;28;20052;-94
2021/04/18 09:16:45;;;;;;;1999.90;999.90;;;9.80;99.90;;;;;;5099360;28;20058;-95
2021/04/18 09:19:37;;;;;;;1999.90;999.90;;;9.90;99.90;;;;;;5098682;28;20086;-95
2021/04/18 09:22:09;;;;;;;1999.90;999.90;;;10.00;99.90;;;;;;5095767;28;20497;-95
2021/04/18 09:24:44;;;;;;;1999.90;999.90;;;10.00;99.90;;;;;;5098711;28;20440;-95
2021/04/18 09:27:15;;;;;;;1999.90;999.90;;;10.20;99.90;;;;;;5097598;28;20051;-95
2021/04/18 09:30:18;;;;;;;1999.90;999.90;;;10.20;99.90;;;;;;5099049;28;20558;-95
2021/04/18 09:32:56;;;;;;;1999.90;999.90;;;10.40;99.90;;;;;;5074440;28;20097;-95
2021/04/18 09:35:27;;;;;;;1999.90;999.90;;;10.30;99.90;;;;;;5098694;28;20058;-95
2021/04/18 09:38:00;;;;;;;1999.90;999.90;;;10.40;99.90;;;;;;5098124;28;20135;-96
2021/04/18 09:44:09;;;;;;;1999.90;999.90;;;10.60;99.90;;;;;;5088384;28;20461;-95
2021/04/18 09:46:57;;;;;;;1999.90;999.90;;;10.80;99.90;;;;;;5098004;28;20054;-95
2021/04/18 09:49:53;;;;;;;1999.90;999.90;;;10.90;99.90;;;;;;5097452;28;20060;-95
2021/04/18 09:52:40;;;;;;;1999.90;999.90;;;11.10;99.40;;;;;;5098564;28;20186;-95
2021/04/18 09:55:23;;;;;;;1999.90;999.90;;;11.00;99.80;;;;;;5097856;28;20048;-95
2021/04/18 09:58:00;;;;;;;1999.90;999.90;;;11.20;99.60;;;;;;5098163;28;20056;-94
2021/04/18 10:00:39;;;;;;;1999.90;999.90;;;11.30;99.90;;;;;;5097127;28;20054;-93
2021/04/18 10:03:18;;;;;;;1999.90;999.90;;;11.50;99.60;;;;;;5096278;28;20489;-95
2021/04/18 10:05:59;;;;;;;1999.90;999.90;;;11.40;98.70;;;;;;5097509;28;20116;-95
2021/04/18 10:08:56;;;;;;;1999.90;999.90;;;11.40;98.80;;;;;;5097166;28;20055;-95
2021/04/18 10:11:25;;;;;;;1999.90;999.90;;;11.50;98.00;;;;;;5096893;28;20383;-94
2021/04/18 10:14:00;;;;;;;1999.90;999.90;;;11.60;96.90;;;;;;5097320;28;20048;-94
2021/04/18 10:16:54;;;;;;;1999.90;999.90;;;11.60;96.90;;;;;;5097628;28;20131;-94
2021/04/18 10:19:25;;;;;;;1999.90;999.90;;;11.80;97.00;;;;;;5083506;28;20056;-94
2021/04/18 10:22:08;;;;;;;1999.90;999.90;;;12.00;96.90;;;;;;5076747;28;20090;-94
2021/04/18 10:24:44;;;;;;;1999.90;999.90;;;12.20;96.30;;;;;;5076297;28;20048;-94
2021/04/18 10:27:26;;;;;;;1999.90;999.90;;;12.30;95.60;;;;;;5076019;28;20131;-95
2021/04/18 10:29:58;;;;;;;1999.90;999.90;;;12.40;94.80;;;;;;5089233;28;20048;-94
2021/04/18 10:32:31;;;;;;;1999.90;999.90;;;12.40;94.20;;;;;;5091825;28;20059;-94
2021/04/18 10:34:58;;;;;;;1999.90;999.90;;;12.50;94.10;;;;;;5096945;28;20048;-95
2021/04/18 10:37:28;;;;;;;1999.90;999.90;;;12.60;92.50;;;;;;5096862;28;20072;-95
2021/04/18 10:40:10;;;;;;;1999.90;999.90;;;12.60;93.00;;;;;;5097294;28;20054;-94
2021/04/18 10:42:39;;;;;;;1999.90;999.90;;;12.70;91.70;;;;;;5098367;28;20052;-95
2021/04/18 10:45:09;;;;;;;1999.90;999.90;;;12.60;91.10;;;;;;5097241;28;20063;-95
2021/04/18 10:47:43;;;;;;;1999.90;999.90;;;12.70;90.70;;;;;;5096228;28;20083;-94
2021/04/18 10:50:13;;;;;;;1999.90;999.90;;;12.80;90.90;;;;;;5096593;28;20472;-94
2021/04/18 10:52:43;;;;;;;1999.90;999.90;;;12.90;88.70;;;;;;5097756;28;20425;-94
2021/04/18 10:55:13;;;;;;;1999.90;999.90;;;12.90;87.90;;;;;;5097509;28;20048;-96
2021/04/18 10:57:49;;;;;;;1999.90;999.90;;;13.00;88.00;;;;;;5096623;28;20394;-96
2021/04/18 11:00:26;;;;;;;1999.90;999.90;;;13.10;86.40;;;;;;5096412;28;20056;-96
2021/04/18 11:03:04;;;;;;;1999.90;999.90;;;13.10;81.90;;;;;;5096420;28;20453;-95
2021/04/18 11:05:38;;;;;;;1999.90;999.90;;;13.20;83.00;;;;;;5096926;28;20475;-95
2021/04/18 11:08:16;;;;;;;;;;;;;;;;;;;;;
2021/04/18 11:11:14;;;;;;;;;;;13.30;83.50;;;;;;5093115;28;20181;-93
2021/04/18 11:13:58;;;;;;;1999.90;999.90;;;13.40;82.80;;;;;;5080396;28;20565;-93
2021/04/18 11:16:29;;;;;;;1999.90;999.90;;;13.60;79.90;;;;;;5094225;28;20047;-92
2021/04/18 11:18:56;;;;;;;1999.90;999.90;;;13.60;77.20;;;;;;5088156;28;20139;-93
2021/04/18 11:21:29;;;;;;;1999.90;999.90;;;13.60;78.00;;;;;;5088630;28;20044;-93
2021/04/18 11:24:08;;;;;;;1999.90;999.90;;;13.60;76.70;;;;;;5083457;28;20129;-92
2021/04/18 11:26:42;;;;;;;1999.90;999.90;;;13.70;77.60;;;;;;5094319;28;20051;-92
2021/04/18 11:29:16;;;;;;;1999.90;999.90;;;13.70;77.90;;;;;;5075551;28;20075;-93
2021/04/18 11:31:55;;;;;;;1999.90;999.90;;;13.80;76.50;;;;;;5079956;28;20071;-93
2021/04/18 11:34:29;;;;;;;1999.90;999.90;;;13.80;75.60;;;;;;5086710;28;20407;-93
2021/04/18 11:36:58;;;;;;;1999.90;999.90;;;13.90;77.10;;;;;;5094797;28;20072;-93
2021/04/18 11:39:36;;;;;;;1999.90;999.90;;;14.00;77.80;;;;;;5094908;28;20163;-93
2021/04/18 11:42:30;;;;;;;1999.90;999.90;;;14.10;79.20;;;;;;5083125;28;20044;-93
2021/04/18 11:45:23;;;;;;;1999.90;999.90;;;14.40;75.80;;;;;;5076628;28;20060;-93
2021/04/18 11:48:10;;;;;;;1999.90;999.90;;;14.50;75.60;;;;;;5088056;28;20056;-93
2021/04/18 11:50:52;;;;;;;1999.90;999.90;;;14.50;74.70;;;;;;5090125;28;20060;-93
2021/04/18 11:53:30;;;;;;;1999.90;999.90;;;14.60;73.80;;;;;;5085543;28;20124;-93
2021/04/18 11:56:26;;;;;;;1999.90;999.90;;;14.80;73.70;;;;;;5119338;28;20047;-96
2021/04/18 11:59:05;;;;;;;1999.90;999.90;;;15.00;68.00;;;;;;5114456;28;20067;-96
2021/04/18 12:01:53;;;;;;;1999.90;999.90;;;14.90;67.30;;;;;;5103097;28;20370;-96
2021/04/18 12:04:42;;;;;;;1999.90;999.90;;;15.00;68.90;;;;;;5096662;28;20060;-96
2021/04/18 12:07:20;;;;;;;1999.90;999.90;;;15.00;65.00;;;;;;5096122;28;20134;-96
2021/04/18 12:10:05;;;;;;;1999.90;999.90;;;15.20;68.00;;;;;;5097154;28;20475;-96
2021/04/18 12:12:51;;;;;;;1999.90;999.90;;;15.20;63.60;;;;;;5097559;28;20055;-96
2021/04/18 12:15:20;;;;;;;1999.90;999.90;;;15.20;61.50;;;;;;5096462;28;20054;-96
2021/04/18 12:18:07;;;;;;;1999.90;999.90;;;15.10;61.30;;;;;;5096835;28;20134;-96
2021/04/18 12:21:14;;;;;;;1999.90;999.90;;;15.10;63.50;;;;;;5098235;28;20466;-96
2021/04/18 12:24:09;;;;;;;1999.90;999.90;;;15.10;61.30;;;;;;5096655;28;20079;-96
2021/04/18 12:26:56;;;;;;;1999.90;999.90;;;15.20;62.80;;;;;;5093141;28;20464;-96
2021/04/18 12:29:59;;;;;;;1999.90;999.90;;;15.20;62.30;;;;;;5099547;28;20048;-96
2021/04/18 12:32:56;;;;;;;1999.90;999.90;;;15.10;62.90;;;;;;5073131;28;20040;-96
2021/04/18 12:35:29;;;;;;;1999.90;999.90;;;15.10;63.10;;;;;;5100908;28;20138;-96
2021/04/18 12:38:29;;;;;;;1999.90;999.90;;;15.00;64.20;;;;;;5099355;28;20047;-96